ADDS METAR Data INFO
IDs: Format: Raw Decoded Include TAF

Data at: 0852 UTC 19 Jun 2018

PABT 190753Z 00000KT 10SM SCT050 BKN065 OVC100 12/11 A2969 RMK AO2 RAE33 SLP059 P0001 T01220111
PABT 190653Z 00000KT 10SM -RA BKN038 OVC050 13/12 A2968 RMK AO2 RAB0556 SLP058 PCPN VRY LGT P0001 T01330117
PABT 190553Z 00000KT 10SM FEW042 BKN050 OVC090 14/12 A2967 RMK AO2 RAE52 SLP053 P0000 60006 T01390117 10167 20139 53008
PABT 190453Z 01004KT 10SM -RA BKN050 OVC075 14/12 A2965 RMK AO2 SLP048 P0003 T01390122
PABT 190353Z 00000KT 10SM -RA FEW050 BKN060 OVC080 14/12 A2965 RMK AO2 SLP047 P0002 T01440117
PABT 190253Z 03004KT 10SM -RA FEW050 BKN060 OVC080 15/10 A2965 RMK AO2 SLP046 P0000 60001 T01500100 56003
PABT 190153Z 03005KT 10SM -RA FEW050 BKN065 OVC080 16/10 A2965 RMK AO2 RAB0057 SLP046 P0001 T01560100
PABT 190053Z 05005KT 10SM FEW050 BKN065 OVC080 17/09 A2965 RMK AO2 RAE47 SLP047 P0000 T01670089
PABT 182353Z 14005KT 10SM -RA FEW050 BKN065 OVC080 16/08 A2965 RMK AO2 RAB01 SLP049 P0000 60000 T01610078 10189 20150 55003
PABT 182253Z 15006KT 10SM FEW050 SCT070 OVC090 18/07 A2965 RMK AO2 SLP047 SHRA DSNT N AND DSNT SW AND VC W T01780072
PABT 182153Z VRB04KT 10SM FEW050 SCT075 BKN090 OVC200 18/07 A2965 RMK AO2 SLP048 T01780067
PABT 182053Z 10006KT 10SM FEW050 BKN100 BKN200 18/06 A2966 RMK AO2 SLP051 SHRA DSNT E T01780061 56018
PABT 181953Z 04008KT 10SM FEW045 SCT100 BKN200 18/08 A2968 RMK AO2 SLP056 T01830078
PABT 181853Z 03008KT 10SM FEW028 SCT080 BKN190 17/08 A2970 RMK AO2 SLP063 T01720078
PABT 181753Z 04006KT 10SM FEW014 FEW080 SCT190 16/09 A2972 RMK AO2 SLP070 T01610089 10161 20083 58016
PABT 181653Z 03006KT 10SM FEW014 FEW080 SCT190 14/08 A2974 RMK AO2 SLP079 T01440083
PABT 181553Z 02003KT 10SM FEW013 SCT080 SCT190 14/09 A2976 RMK AO2 SLP085 T01390094
PABT 181453Z 02004KT 10SM FEW015 BKN190 11/09 A2977 RMK AO2 SLP088 T01110089 58009
PABT 181353Z 00000KT 10SM FEW020 SCT100 09/08 A2979 RMK AO2 SLP095 T00890083
PABT 181253Z 00000KT 10SM FEW024 SCT100 BKN200 09/08 A2979 RMK AO2 SLP097 T00890083
PABT 181153Z 00000KT 10SM FEW025 BKN095 09/09 A2979 RMK AO2 SLP097 70054 T00940089 10128 20094 58002
PABT 181053Z 13003KT 10SM SCT032 OVC100 10/08 A2980 RMK AO2 SLP100 T01000083
PABT 180953Z 00000KT 10SM FEW034 SCT042 OVC065 10/09 A2980 RMK AO2 SLP099 T01000094
PABT 180853Z 12005KT 10SM SCT036 BKN048 OVC060 11/09 A2980 RMK AO2 SLP099 T01110094 401390072 50001
PABT 180753Z 13003KT 10SM FEW034 BKN045 OVC060 11/10 A2981 RMK AO2 SLP101 T01110100
PABT 180653Z 00000KT 10SM SCT045 BKN060 12/11 A2980 RMK AO2 SLP100 T01220106
PABT 180553Z 13003KT 10SM SCT045 BKN060 13/11 A2980 RMK AO2 RAE22 SLP099 P0000 60013 T01280106 10139 20106 51005
PABT 180453Z 00000KT 10SM -RA SCT055 BKN075 OVC090 12/11 A2979 RMK AO2 RAB24 SLP098 P0000 T01220106
PABT 180353Z 00000KT 10SM FEW025 BKN075 OVC100 12/10 A2979 RMK AO2 RAE13 SLP096 SHRA VC N P0001 T01170100
PABT 180253Z 12004KT 7SM -RA FEW019 BKN040 OVC050 11/09 A2978 RMK AO2 RAB21 SLP093 P0012 60012 T01110094 55000
PABT 180246Z 12006KT 3SM RA BR FEW019 BKN040 OVC060 11/09 A2978 RMK AO2 RAB21 P0012 T01110094
PABT 180238Z VRB04KT 1 3/4SM +RA BR FEW022 BKN050 OVC070 11/09 A2978 RMK AO2 RAB21 P0009 T01110094
PABT 180153Z 09003KT 10SM FEW022 SCT065 OVC080 13/09 A2978 RMK AO2 RAE0059B43E53 SLP091 SHRA VC S-SW P0000 T01330089
PABT 180053Z VRB03KT 10SM -RA FEW010 SCT016 BKN050 13/11 A2978 RMK AO2 SLP092 P0000 T01330106
PABT 172353Z 05004KT 10SM -RA FEW010 SCT016 BKN048 12/10 A2978 RMK AO2 SLP093 60036 T01220100 10139 20083 53007
PABT 172327Z 04004KT 8SM -RA SCT010 SCT016 BKN048 11/09 A2978 RMK AO2 P0016 T01110094
PABT 172320Z 00000KT 3SM -RA BR SCT010 BKN016 OVC048 11/09 A2978 RMK AO2 P0016 T01110094
PABT 172253Z 28007KT 1 1/4SM +RA BR FEW010 BKN025 OVC040 11/09 A2978 RMK AO2 SLP092 P0015 T01060089
PABT 172244Z 27005KT 1 1/4SM +RA BR FEW010 BKN025 OVC050 12/09 A2977 RMK AO2 P0009 T01170094
PABT 172235Z 04004KT 2SM +RA FEW010 BKN025 OVC050 12/09 A2977 RMK AO2 P0003 T01220094
PABT 172153Z 04004KT 10SM -RA FEW010 SCT022 BKN050 14/09 A2976 RMK AO2 RAB30 SLP085 P0000 T01390089
PABT 172100Z 00000KT 10SM FEW010 SCT022 BKN050 13/09 A2976 RMK AO2 T01280089
PABT 172053Z 00000KT 10SM SCT011 BKN022 BKN050 13/08 A2976 RMK AO2 SLP085 60001 T01280083 53003